sensor_id;sensor_type;location;lat;lon;timestamp;P1;durP1;ratioP1;P2;durP2;ratioP2
53646;SDS011;39550;52.230;5.194;2022-07-06T00:02:15;3.45;;;1.70;;
53646;SDS011;39550;52.230;5.194;2022-07-06T00:04:40;3.28;;;1.70;;
53646;SDS011;39550;52.230;5.194;2022-07-06T00:07:05;5.45;;;1.83;;
53646;SDS011;39550;52.230;5.194;2022-07-06T00:09:31;4.13;;;2.08;;
53646;SDS011;39550;52.230;5.194;2022-07-06T00:11:57;3.78;;;1.73;;
53646;SDS011;39550;52.230;5.194;2022-07-06T00:14:22;4.85;;;2.15;;
53646;SDS011;39550;52.230;5.194;2022-07-06T00:16:47;3.17;;;1.67;;
53646;SDS011;39550;52.230;5.194;2022-07-06T00:19:13;4.13;;;1.88;;
53646;SDS011;39550;52.230;5.194;2022-07-06T00:21:38;3.70;;;1.85;;
53646;SDS011;39550;52.230;5.194;2022-07-06T00:24:03;4.63;;;2.08;;
53646;SDS011;39550;52.230;5.194;2022-07-06T00:26:29;4.88;;;1.77;;
53646;SDS011;39550;52.230;5.194;2022-07-06T00:28:54;3.20;;;1.85;;
53646;SDS011;39550;52.230;5.194;2022-07-06T00:31:19;4.68;;;2.33;;
53646;SDS011;39550;52.230;5.194;2022-07-06T00:33:45;3.78;;;1.70;;
53646;SDS011;39550;52.230;5.194;2022-07-06T00:36:10;4.43;;;1.80;;
53646;SDS011;39550;52.230;5.194;2022-07-06T00:38:35;3.10;;;1.67;;
53646;SDS011;39550;52.230;5.194;2022-07-06T00:41:01;3.00;;;1.75;;
53646;SDS011;39550;52.230;5.194;2022-07-06T00:43:26;3.88;;;1.83;;
53646;SDS011;39550;52.230;5.194;2022-07-06T00:45:51;4.05;;;2.00;;
53646;SDS011;39550;52.230;5.194;2022-07-06T00:48:17;3.53;;;2.10;;
53646;SDS011;39550;52.230;5.194;2022-07-06T00:50:42;4.95;;;1.92;;
53646;SDS011;39550;52.230;5.194;2022-07-06T00:53:08;4.05;;;2.10;;
53646;SDS011;39550;52.230;5.194;2022-07-06T00:55:35;3.70;;;2.03;;
53646;SDS011;39550;52.230;5.194;2022-07-06T00:58:04;3.50;;;1.80;;
53646;SDS011;39550;52.230;5.194;2022-07-06T01:00:31;3.83;;;1.98;;
53646;SDS011;39550;52.230;5.194;2022-07-06T01:02:56;3.60;;;1.95;;
53646;SDS011;39550;52.230;5.194;2022-07-06T01:05:22;3.17;;;1.77;;
53646;SDS011;39550;52.230;5.194;2022-07-06T01:07:48;4.90;;;1.90;;
53646;SDS011;39550;52.230;5.194;2022-07-06T01:10:15;3.45;;;1.85;;
53646;SDS011;39550;52.230;5.194;2022-07-06T01:12:42;3.88;;;2.03;;
53646;SDS011;39550;52.230;5.194;2022-07-06T01:15:12;2.83;;;1.67;;
53646;SDS011;39550;52.230;5.194;2022-07-06T01:17:42;4.57;;;1.83;;
53646;SDS011;39550;52.230;5.194;2022-07-06T01:20:24;3.50;;;1.88;;
53646;SDS011;39550;52.230;5.194;2022-07-06T01:22:51;5.40;;;1.90;;
53646;SDS011;39550;52.230;5.194;2022-07-06T01:25:18;4.18;;;2.10;;
53646;SDS011;39550;52.230;5.194;2022-07-06T01:27:45;4.15;;;1.88;;
53646;SDS011;39550;52.230;5.194;2022-07-06T01:30:12;3.70;;;1.80;;
53646;SDS011;39550;52.230;5.194;2022-07-06T01:32:39;4.20;;;1.77;;
53646;SDS011;39550;52.230;5.194;2022-07-06T01:35:06;3.78;;;1.83;;
53646;SDS011;39550;52.230;5.194;2022-07-06T01:37:33;2.42;;;1.40;;
53646;SDS011;39550;52.230;5.194;2022-07-06T01:39:59;4.78;;;1.95;;
53646;SDS011;39550;52.230;5.194;2022-07-06T01:42:25;4.28;;;1.65;;
53646;SDS011;39550;52.230;5.194;2022-07-06T01:44:50;4.95;;;1.70;;
53646;SDS011;39550;52.230;5.194;2022-07-06T01:47:15;3.83;;;1.63;;
53646;SDS011;39550;52.230;5.194;2022-07-06T01:49:41;5.30;;;1.90;;
53646;SDS011;39550;52.230;5.194;2022-07-06T01:52:06;3.90;;;1.80;;
53646;SDS011;39550;52.230;5.194;2022-07-06T01:54:31;3.65;;;1.70;;
53646;SDS011;39550;52.230;5.194;2022-07-06T01:56:57;4.50;;;1.80;;
53646;SDS011;39550;52.230;5.194;2022-07-06T01:59:22;6.18;;;1.83;;
53646;SDS011;39550;52.230;5.194;2022-07-06T02:01:47;2.72;;;1.58;;
53646;SDS011;39550;52.230;5.194;2022-07-06T02:04:12;3.72;;;1.70;;
53646;SDS011;39550;52.230;5.194;2022-07-06T02:06:38;3.90;;;1.70;;
53646;SDS011;39550;52.230;5.194;2022-07-06T02:09:03;4.05;;;2.15;;
53646;SDS011;39550;52.230;5.194;2022-07-06T02:11:28;4.70;;;2.05;;
53646;SDS011;39550;52.230;5.194;2022-07-06T02:13:54;3.20;;;1.60;;
53646;SDS011;39550;52.230;5.194;2022-07-06T02:16:19;5.80;;;1.90;;
53646;SDS011;39550;52.230;5.194;2022-07-06T02:18:44;3.50;;;1.70;;
53646;SDS011;39550;52.230;5.194;2022-07-06T02:21:10;3.25;;;1.65;;
53646;SDS011;39550;52.230;5.194;2022-07-06T02:23:35;3.90;;;1.63;;
53646;SDS011;39550;52.230;5.194;2022-07-06T02:26:00;2.53;;;1.60;;
53646;SDS011;39550;52.230;5.194;2022-07-06T02:28:26;4.75;;;1.70;;
53646;SDS011;39550;52.230;5.194;2022-07-06T02:30:51;2.83;;;1.70;;
53646;SDS011;39550;52.230;5.194;2022-07-06T02:33:16;3.08;;;1.70;;
53646;SDS011;39550;52.230;5.194;2022-07-06T02:35:42;3.25;;;1.70;;
53646;SDS011;39550;52.230;5.194;2022-07-06T02:38:08;4.32;;;1.73;;
53646;SDS011;39550;52.230;5.194;2022-07-06T02:40:34;4.05;;;1.65;;
53646;SDS011;39550;52.230;5.194;2022-07-06T02:43:00;3.20;;;1.67;;
53646;SDS011;39550;52.230;5.194;2022-07-06T02:45:25;3.20;;;1.70;;
53646;SDS011;39550;52.230;5.194;2022-07-06T02:47:50;4.70;;;1.98;;
53646;SDS011;39550;52.230;5.194;2022-07-06T02:50:16;3.83;;;1.80;;
53646;SDS011;39550;52.230;5.194;2022-07-06T02:52:41;3.03;;;1.60;;
53646;SDS011;39550;52.230;5.194;2022-07-06T02:55:07;4.78;;;1.80;;
53646;SDS011;39550;52.230;5.194;2022-07-06T02:57:32;3.88;;;1.65;;
53646;SDS011;39550;52.230;5.194;2022-07-06T02:59:58;3.47;;;1.65;;
53646;SDS011;39550;52.230;5.194;2022-07-06T03:02:23;2.95;;;1.60;;
53646;SDS011;39550;52.230;5.194;2022-07-06T03:04:49;3.53;;;1.70;;
53646;SDS011;39550;52.230;5.194;2022-07-06T03:07:15;4.15;;;1.65;;
53646;SDS011;39550;52.230;5.194;2022-07-06T03:09:40;3.83;;;1.60;;
53646;SDS011;39550;52.230;5.194;2022-07-06T03:12:06;4.38;;;1.67;;
53646;SDS011;39550;52.230;5.194;2022-07-06T03:14:32;3.22;;;1.60;;
53646;SDS011;39550;52.230;5.194;2022-07-06T03:16:57;4.30;;;1.70;;
53646;SDS011;39550;52.230;5.194;2022-07-06T03:19:22;4.22;;;1.60;;
53646;SDS011;39550;52.230;5.194;2022-07-06T03:21:48;3.60;;;1.60;;
53646;SDS011;39550;52.230;5.194;2022-07-06T03:24:13;2.92;;;1.73;;
53646;SDS011;39550;52.230;5.194;2022-07-06T03:26:38;3.88;;;1.65;;
53646;SDS011;39550;52.230;5.194;2022-07-06T03:29:03;2.60;;;1.55;;
53646;SDS011;39550;52.230;5.194;2022-07-06T03:31:29;5.22;;;1.80;;
53646;SDS011;39550;52.230;5.194;2022-07-06T03:33:54;3.63;;;1.60;;
53646;SDS011;39550;52.230;5.194;2022-07-06T03:36:20;3.40;;;1.75;;
53646;SDS011;39550;52.230;5.194;2022-07-06T03:38:45;3.97;;;1.73;;
53646;SDS011;39550;52.230;5.194;2022-07-06T03:41:10;4.25;;;1.85;;
53646;SDS011;39550;52.230;5.194;2022-07-06T03:43:35;4.47;;;1.83;;
53646;SDS011;39550;52.230;5.194;2022-07-06T03:46:02;3.97;;;1.52;;
53646;SDS011;39550;52.230;5.194;2022-07-06T03:48:27;4.75;;;1.65;;
53646;SDS011;39550;52.230;5.194;2022-07-06T03:50:53;3.33;;;1.77;;
53646;SDS011;39550;52.230;5.194;2022-07-06T03:53:19;3.83;;;1.90;;
53646;SDS011;39550;52.230;5.194;2022-07-06T03:55:44;3.85;;;1.98;;
53646;SDS011;39550;52.230;5.194;2022-07-06T03:58:29;3.60;;;1.60;;
53646;SDS011;39550;52.230;5.194;2022-07-06T04:00:55;3.03;;;1.70;;
53646;SDS011;39550;52.230;5.194;2022-07-06T04:03:20;5.30;;;2.05;;
53646;SDS011;39550;52.230;5.194;2022-07-06T04:05:45;3.63;;;1.70;;
53646;SDS011;39550;52.230;5.194;2022-07-06T04:08:10;3.88;;;1.77;;
53646;SDS011;39550;52.230;5.194;2022-07-06T04:10:36;3.92;;;1.63;;
53646;SDS011;39550;52.230;5.194;2022-07-06T04:13:01;3.25;;;1.60;;
53646;SDS011;39550;52.230;5.194;2022-07-06T04:15:26;3.15;;;1.80;;
53646;SDS011;39550;52.230;5.194;2022-07-06T04:17:51;3.28;;;1.70;;
53646;SDS011;39550;52.230;5.194;2022-07-06T04:20:17;3.05;;;1.60;;
53646;SDS011;39550;52.230;5.194;2022-07-06T04:22:42;3.83;;;2.13;;
53646;SDS011;39550;52.230;5.194;2022-07-06T04:25:08;3.22;;;1.67;;
53646;SDS011;39550;52.230;5.194;2022-07-06T04:27:34;3.35;;;1.55;;
53646;SDS011;39550;52.230;5.194;2022-07-06T04:29:59;3.05;;;1.60;;
53646;SDS011;39550;52.230;5.194;2022-07-06T04:32:25;3.50;;;1.83;;
53646;SDS011;39550;52.230;5.194;2022-07-06T04:34:50;3.67;;;1.60;;
53646;SDS011;39550;52.230;5.194;2022-07-06T04:37:15;2.75;;;1.52;;
53646;SDS011;39550;52.230;5.194;2022-07-06T04:39:40;3.60;;;1.70;;
53646;SDS011;39550;52.230;5.194;2022-07-06T04:42:06;4.18;;;1.50;;
53646;SDS011;39550;52.230;5.194;2022-07-06T04:44:31;2.75;;;1.60;;
53646;SDS011;39550;52.230;5.194;2022-07-06T04:46:56;2.78;;;1.60;;
53646;SDS011;39550;52.230;5.194;2022-07-06T04:49:21;2.65;;;1.48;;
53646;SDS011;39550;52.230;5.194;2022-07-06T04:51:47;2.72;;;1.50;;
53646;SDS011;39550;52.230;5.194;2022-07-06T04:54:12;3.40;;;1.83;;
53646;SDS011;39550;52.230;5.194;2022-07-06T04:56:37;3.47;;;1.92;;
53646;SDS011;39550;52.230;5.194;2022-07-06T04:59:03;2.67;;;1.55;;
53646;SDS011;39550;52.230;5.194;2022-07-06T05:01:28;4.82;;;1.50;;
53646;SDS011;39550;52.230;5.194;2022-07-06T05:03:53;3.88;;;1.80;;
53646;SDS011;39550;52.230;5.194;2022-07-06T05:06:19;2.72;;;1.50;;
53646;SDS011;39550;52.230;5.194;2022-07-06T05:08:45;3.22;;;1.60;;
53646;SDS011;39550;52.230;5.194;2022-07-06T05:11:10;3.42;;;1.50;;
53646;SDS011;39550;52.230;5.194;2022-07-06T05:13:35;2.60;;;1.40;;
53646;SDS011;39550;52.230;5.194;2022-07-06T05:16:00;2.92;;;1.50;;
53646;SDS011;39550;52.230;5.194;2022-07-06T05:18:26;3.80;;;1.63;;
53646;SDS011;39550;52.230;5.194;2022-07-06T05:20:51;2.55;;;1.50;;
53646;SDS011;39550;52.230;5.194;2022-07-06T05:23:16;3.03;;;1.70;;
53646;SDS011;39550;52.230;5.194;2022-07-06T05:25:42;2.40;;;1.45;;
53646;SDS011;39550;52.230;5.194;2022-07-06T05:28:07;3.05;;;1.60;;
53646;SDS011;39550;52.230;5.194;2022-07-06T05:30:32;3.55;;;1.80;;
53646;SDS011;39550;52.230;5.194;2022-07-06T05:32:57;3.60;;;1.50;;
53646;SDS011;39550;52.230;5.194;2022-07-06T05:35:23;2.42;;;1.52;;
53646;SDS011;39550;52.230;5.194;2022-07-06T05:37:48;3.20;;;1.67;;
53646;SDS011;39550;52.230;5.194;2022-07-06T05:40:13;4.43;;;2.08;;
53646;SDS011;39550;52.230;5.194;2022-07-06T05:42:39;4.30;;;1.70;;
53646;SDS011;39550;52.230;5.194;2022-07-06T05:45:04;3.92;;;1.63;;
53646;SDS011;39550;52.230;5.194;2022-07-06T05:47:30;3.70;;;1.75;;
53646;SDS011;39550;52.230;5.194;2022-07-06T05:50:14;3.05;;;1.67;;
53646;SDS011;39550;52.230;5.194;2022-07-06T05:52:40;5.35;;;1.60;;
53646;SDS011;39550;52.230;5.194;2022-07-06T05:55:07;3.63;;;1.70;;
53646;SDS011;39550;52.230;5.194;2022-07-06T05:57:33;6.90;;;1.65;;
53646;SDS011;39550;52.230;5.194;2022-07-06T05:59:58;4.03;;;1.70;;
53646;SDS011;39550;52.230;5.194;2022-07-06T06:02:24;3.72;;;1.70;;
53646;SDS011;39550;52.230;5.194;2022-07-06T06:04:49;3.50;;;1.75;;
53646;SDS011;39550;52.230;5.194;2022-07-06T06:07:14;4.43;;;1.70;;
53646;SDS011;39550;52.230;5.194;2022-07-06T06:09:39;4.05;;;1.70;;
53646;SDS011;39550;52.230;5.194;2022-07-06T06:12:05;3.80;;;1.73;;
53646;SDS011;39550;52.230;5.194;2022-07-06T06:14:30;4.80;;;1.77;;
53646;SDS011;39550;52.230;5.194;2022-07-06T06:16:56;4.60;;;1.85;;
53646;SDS011;39550;52.230;5.194;2022-07-06T06:19:21;3.35;;;1.70;;
53646;SDS011;39550;52.230;5.194;2022-07-06T06:21:46;10.38;;;2.22;;
53646;SDS011;39550;52.230;5.194;2022-07-06T06:24:11;5.80;;;2.03;;
53646;SDS011;39550;52.230;5.194;2022-07-06T06:26:37;8.35;;;1.80;;
53646;SDS011;39550;52.230;5.194;2022-07-06T06:29:02;5.05;;;1.92;;
53646;SDS011;39550;52.230;5.194;2022-07-06T06:31:27;4.82;;;1.75;;
53646;SDS011;39550;52.230;5.194;2022-07-06T06:33:53;7.53;;;2.15;;
53646;SDS011;39550;52.230;5.194;2022-07-06T06:36:18;5.63;;;1.80;;
53646;SDS011;39550;52.230;5.194;2022-07-06T06:38:44;3.50;;;1.50;;
53646;SDS011;39550;52.230;5.194;2022-07-06T06:41:09;5.28;;;1.83;;
53646;SDS011;39550;52.230;5.194;2022-07-06T06:43:34;7.20;;;1.92;;
53646;SDS011;39550;52.230;5.194;2022-07-06T06:46:00;3.97;;;1.80;;
53646;SDS011;39550;52.230;5.194;2022-07-06T06:48:25;3.72;;;1.55;;
53646;SDS011;39550;52.230;5.194;2022-07-06T06:50:50;3.47;;;1.60;;
53646;SDS011;39550;52.230;5.194;2022-07-06T06:53:15;15.70;;;3.33;;
53646;SDS011;39550;52.230;5.194;2022-07-06T06:55:41;28.08;;;5.47;;
53646;SDS011;39550;52.230;5.194;2022-07-06T06:58:06;12.65;;;3.42;;
53646;SDS011;39550;52.230;5.194;2022-07-06T07:00:32;20.63;;;3.22;;
53646;SDS011;39550;52.230;5.194;2022-07-06T07:02:57;19.90;;;3.55;;
53646;SDS011;39550;52.230;5.194;2022-07-06T07:05:22;12.75;;;2.42;;
53646;SDS011;39550;52.230;5.194;2022-07-06T07:07:48;13.05;;;2.58;;
53646;SDS011;39550;52.230;5.194;2022-07-06T07:10:13;23.88;;;4.18;;
53646;SDS011;39550;52.230;5.194;2022-07-06T07:12:45;16.38;;;2.70;;
53646;SDS011;39550;52.230;5.194;2022-07-06T07:15:11;16.63;;;3.00;;
53646;SDS011;39550;52.230;5.194;2022-07-06T07:17:37;11.10;;;2.50;;
53646;SDS011;39550;52.230;5.194;2022-07-06T07:20:03;10.70;;;2.50;;
53646;SDS011;39550;52.230;5.194;2022-07-06T07:22:29;12.18;;;3.25;;
53646;SDS011;39550;52.230;5.194;2022-07-06T07:24:55;9.18;;;2.38;;
53646;SDS011;39550;52.230;5.194;2022-07-06T07:27:20;6.93;;;1.95;;
53646;SDS011;39550;52.230;5.194;2022-07-06T07:29:45;5.03;;;1.88;;
53646;SDS011;39550;52.230;5.194;2022-07-06T07:32:10;3.60;;;1.80;;
53646;SDS011;39550;52.230;5.194;2022-07-06T07:34:36;5.75;;;2.13;;
53646;SDS011;39550;52.230;5.194;2022-07-06T07:37:01;5.53;;;1.75;;
53646;SDS011;39550;52.230;5.194;2022-07-06T07:39:26;5.15;;;2.10;;
53646;SDS011;39550;52.230;5.194;2022-07-06T07:41:52;7.45;;;2.05;;
53646;SDS011;39550;52.230;5.194;2022-07-06T07:44:17;5.13;;;2.10;;
53646;SDS011;39550;52.230;5.194;2022-07-06T07:46:42;3.90;;;1.85;;
53646;SDS011;39550;52.230;5.194;2022-07-06T07:49:08;4.60;;;1.80;;
53646;SDS011;39550;52.230;5.194;2022-07-06T07:51:33;4.60;;;1.80;;
53646;SDS011;39550;52.230;5.194;2022-07-06T07:53:58;3.85;;;1.63;;
53646;SDS011;39550;52.230;5.194;2022-07-06T07:56:24;4.93;;;1.90;;
53646;SDS011;39550;52.230;5.194;2022-07-06T07:58:49;6.15;;;2.28;;
53646;SDS011;39550;52.230;5.194;2022-07-06T08:01:14;4.95;;;1.77;;
53646;SDS011;39550;52.230;5.194;2022-07-06T08:03:40;4.95;;;1.80;;
53646;SDS011;39550;52.230;5.194;2022-07-06T08:06:05;3.20;;;1.60;;
53646;SDS011;39550;52.230;5.194;2022-07-06T08:08:30;3.55;;;1.80;;
53646;SDS011;39550;52.230;5.194;2022-07-06T08:10:56;5.10;;;2.03;;
53646;SDS011;39550;52.230;5.194;2022-07-06T08:13:21;5.63;;;1.90;;
53646;SDS011;39550;52.230;5.194;2022-07-06T08:15:47;4.63;;;1.70;;
53646;SDS011;39550;52.230;5.194;2022-07-06T08:18:12;4.55;;;1.73;;
53646;SDS011;39550;52.230;5.194;2022-07-06T08:20:37;4.00;;;1.77;;
53646;SDS011;39550;52.230;5.194;2022-07-06T08:23:03;3.20;;;1.77;;
53646;SDS011;39550;52.230;5.194;2022-07-06T08:25:29;3.55;;;1.67;;
53646;SDS011;39550;52.230;5.194;2022-07-06T08:27:55;3.28;;;1.92;;
53646;SDS011;39550;52.230;5.194;2022-07-06T08:30:20;2.80;;;1.70;;
53646;SDS011;39550;52.230;5.194;2022-07-06T08:32:45;3.45;;;1.75;;
53646;SDS011;39550;52.230;5.194;2022-07-06T08:35:11;4.25;;;1.90;;
53646;SDS011;39550;52.230;5.194;2022-07-06T08:37:36;4.53;;;1.77;;
53646;SDS011;39550;52.230;5.194;2022-07-06T08:40:02;3.33;;;1.80;;
53646;SDS011;39550;52.230;5.194;2022-07-06T08:42:34;3.60;;;1.63;;
53646;SDS011;39550;52.230;5.194;2022-07-06T08:45:02;3.40;;;1.80;;
53646;SDS011;39550;52.230;5.194;2022-07-06T08:47:29;4.38;;;1.80;;
53646;SDS011;39550;52.230;5.194;2022-07-06T08:49:56;5.38;;;1.80;;
53646;SDS011;39550;52.230;5.194;2022-07-06T08:52:24;3.20;;;1.58;;
53646;SDS011;39550;52.230;5.194;2022-07-06T08:54:50;3.67;;;1.60;;
53646;SDS011;39550;52.230;5.194;2022-07-06T08:57:15;3.72;;;1.77;;
53646;SDS011;39550;52.230;5.194;2022-07-06T08:59:42;3.70;;;1.80;;
53646;SDS011;39550;52.230;5.194;2022-07-06T09:02:09;4.75;;;1.88;;
53646;SDS011;39550;52.230;5.194;2022-07-06T09:04:36;3.33;;;1.60;;
53646;SDS011;39550;52.230;5.194;2022-07-06T09:07:02;3.55;;;1.60;;
53646;SDS011;39550;52.230;5.194;2022-07-06T09:09:28;3.60;;;2.10;;
53646;SDS011;39550;52.230;5.194;2022-07-06T09:11:57;3.90;;;1.50;;
53646;SDS011;39550;52.230;5.194;2022-07-06T09:14:23;4.05;;;1.65;;
53646;SDS011;39550;52.230;5.194;2022-07-06T09:16:52;23.45;;;3.05;;
53646;SDS011;39550;52.230;5.194;2022-07-06T09:19:28;2.60;;;1.40;;
53646;SDS011;39550;52.230;5.194;2022-07-06T09:21:53;3.67;;;1.70;;
53646;SDS011;39550;52.230;5.194;2022-07-06T09:24:19;3.53;;;2.05;;
53646;SDS011;39550;52.230;5.194;2022-07-06T09:26:44;2.70;;;1.50;;
53646;SDS011;39550;52.230;5.194;2022-07-06T09:29:10;3.45;;;1.80;;
53646;SDS011;39550;52.230;5.194;2022-07-06T09:31:36;4.03;;;1.63;;
53646;SDS011;39550;52.230;5.194;2022-07-06T09:34:03;2.88;;;1.60;;
53646;SDS011;39550;52.230;5.194;2022-07-06T09:41:50;5.78;;;1.70;;
53646;SDS011;39550;52.230;5.194;2022-07-06T09:44:20;3.45;;;1.50;;
53646;SDS011;39550;52.230;5.194;2022-07-06T09:46:48;3.58;;;1.48;;
53646;SDS011;39550;52.230;5.194;2022-07-06T09:49:20;2.45;;;1.50;;
53646;SDS011;39550;52.230;5.194;2022-07-06T09:51:47;2.80;;;1.55;;
53646;SDS011;39550;52.230;5.194;2022-07-06T09:54:15;2.95;;;1.63;;
53646;SDS011;39550;52.230;5.194;2022-07-06T09:56:42;5.25;;;1.70;;
53646;SDS011;39550;52.230;5.194;2022-07-06T09:59:12;2.60;;;1.50;;
53646;SDS011;39550;52.230;5.194;2022-07-06T10:01:38;3.38;;;1.50;;
53646;SDS011;39550;52.230;5.194;2022-07-06T10:04:13;2.63;;;1.48;;
53646;SDS011;39550;52.230;5.194;2022-07-06T10:06:40;2.67;;;1.42;;
53646;SDS011;39550;52.230;5.194;2022-07-06T10:09:06;2.80;;;1.58;;
53646;SDS011;39550;52.230;5.194;2022-07-06T10:11:52;3.15;;;1.50;;
53646;SDS011;39550;52.230;5.194;2022-07-06T10:14:19;4.10;;;1.60;;
53646;SDS011;39550;52.230;5.194;2022-07-06T10:16:47;2.88;;;1.48;;
53646;SDS011;39550;52.230;5.194;2022-07-06T10:19:13;3.95;;;1.60;;
53646;SDS011;39550;52.230;5.194;2022-07-06T10:21:40;2.25;;;1.35;;
53646;SDS011;39550;52.230;5.194;2022-07-06T10:24:07;4.07;;;1.58;;
53646;SDS011;39550;52.230;5.194;2022-07-06T10:26:34;2.85;;;1.45;;
53646;SDS011;39550;52.230;5.194;2022-07-06T10:29:04;2.92;;;1.40;;
53646;SDS011;39550;52.230;5.194;2022-07-06T10:31:30;3.42;;;1.75;;
53646;SDS011;39550;52.230;5.194;2022-07-06T10:33:59;5.70;;;1.60;;
53646;SDS011;39550;52.230;5.194;2022-07-06T10:36:26;2.88;;;1.60;;
53646;SDS011;39550;52.230;5.194;2022-07-06T10:38:53;2.60;;;1.58;;
53646;SDS011;39550;52.230;5.194;2022-07-06T10:41:29;3.25;;;1.55;;
53646;SDS011;39550;52.230;5.194;2022-07-06T10:43:56;2.80;;;1.75;;
53646;SDS011;39550;52.230;5.194;2022-07-06T10:46:23;4.43;;;1.48;;
53646;SDS011;39550;52.230;5.194;2022-07-06T10:48:52;1.83;;;1.40;;
53646;SDS011;39550;52.230;5.194;2022-07-06T10:51:24;3.03;;;1.50;;
53646;SDS011;39550;52.230;5.194;2022-07-06T10:53:56;4.30;;;1.67;;
53646;SDS011;39550;52.230;5.194;2022-07-06T10:56:39;2.47;;;1.40;;
53646;SDS011;39550;52.230;5.194;2022-07-06T11:01:38;4.22;;;1.60;;
53646;SDS011;39550;52.230;5.194;2022-07-06T11:04:05;2.10;;;1.40;;
53646;SDS011;39550;52.230;5.194;2022-07-06T11:06:32;3.70;;;1.75;;
53646;SDS011;39550;52.230;5.194;2022-07-06T11:09:00;3.10;;;1.50;;
53646;SDS011;39550;52.230;5.194;2022-07-06T11:16:31;2.85;;;1.52;;
53646;SDS011;39550;52.230;5.194;2022-07-06T11:19:00;4.18;;;1.75;;
53646;SDS011;39550;52.230;5.194;2022-07-06T11:24:10;4.22;;;1.88;;
53646;SDS011;39550;52.230;5.194;2022-07-06T11:26:55;2.45;;;1.50;;
53646;SDS011;39550;52.230;5.194;2022-07-06T11:29:22;5.95;;;1.70;;
53646;SDS011;39550;52.230;5.194;2022-07-06T11:31:56;6.20;;;1.90;;
53646;SDS011;39550;52.230;5.194;2022-07-06T11:34:33;6.90;;;1.80;;
53646;SDS011;39550;52.230;5.194;2022-07-06T11:39:30;5.07;;;1.55;;
53646;SDS011;39550;52.230;5.194;2022-07-06T11:41:56;4.97;;;1.80;;
53646;SDS011;39550;52.230;5.194;2022-07-06T11:44:22;4.93;;;1.67;;
53646;SDS011;39550;52.230;5.194;2022-07-06T11:46:48;4.18;;;1.70;;
53646;SDS011;39550;52.230;5.194;2022-07-06T11:49:14;3.58;;;1.50;;
53646;SDS011;39550;52.230;5.194;2022-07-06T11:51:40;3.33;;;1.70;;
53646;SDS011;39550;52.230;5.194;2022-07-06T11:56:49;7.00;;;2.13;;
53646;SDS011;39550;52.230;5.194;2022-07-06T11:59:16;4.28;;;1.83;;
53646;SDS011;39550;52.230;5.194;2022-07-06T12:01:46;3.30;;;1.50;;
53646;SDS011;39550;52.230;5.194;2022-07-06T12:04:11;3.90;;;1.70;;
53646;SDS011;39550;52.230;5.194;2022-07-06T12:06:36;4.53;;;1.50;;
53646;SDS011;39550;52.230;5.194;2022-07-06T12:09:02;3.33;;;1.65;;
53646;SDS011;39550;52.230;5.194;2022-07-06T12:11:30;4.18;;;2.10;;
53646;SDS011;39550;52.230;5.194;2022-07-06T12:13:57;3.70;;;1.40;;
53646;SDS011;39550;52.230;5.194;2022-07-06T12:16:32;4.30;;;1.70;;
53646;SDS011;39550;52.230;5.194;2022-07-06T12:18:59;2.50;;;1.48;;
53646;SDS011;39550;52.230;5.194;2022-07-06T12:21:27;4.55;;;1.85;;
53646;SDS011;39550;52.230;5.194;2022-07-06T12:23:53;2.55;;;1.50;;
53646;SDS011;39550;52.230;5.194;2022-07-06T12:26:20;4.13;;;1.67;;
53646;SDS011;39550;52.230;5.194;2022-07-06T12:29:06;4.78;;;1.80;;
53646;SDS011;39550;52.230;5.194;2022-07-06T12:34:12;3.90;;;1.80;;
53646;SDS011;39550;52.230;5.194;2022-07-06T12:36:46;3.22;;;1.83;;
53646;SDS011;39550;52.230;5.194;2022-07-06T12:39:13;3.22;;;1.50;;
53646;SDS011;39550;52.230;5.194;2022-07-06T12:41:43;3.20;;;1.70;;
53646;SDS011;39550;52.230;5.194;2022-07-06T12:44:10;6.97;;;2.00;;
53646;SDS011;39550;52.230;5.194;2022-07-06T12:46:37;3.65;;;1.67;;
53646;SDS011;39550;52.230;5.194;2022-07-06T12:49:10;3.55;;;1.70;;
53646;SDS011;39550;52.230;5.194;2022-07-06T12:51:48;6.20;;;1.98;;
53646;SDS011;39550;52.230;5.194;2022-07-06T12:59:22;3.50;;;1.70;;
53646;SDS011;39550;52.230;5.194;2022-07-06T13:01:48;4.95;;;1.70;;
53646;SDS011;39550;52.230;5.194;2022-07-06T13:04:16;3.70;;;1.80;;
53646;SDS011;39550;52.230;5.194;2022-07-06T13:06:41;4.78;;;1.95;;
53646;SDS011;39550;52.230;5.194;2022-07-06T13:09:06;3.65;;;2.00;;
53646;SDS011;39550;52.230;5.194;2022-07-06T13:11:32;4.82;;;1.85;;
53646;SDS011;39550;52.230;5.194;2022-07-06T13:13:58;3.47;;;1.80;;
53646;SDS011;39550;52.230;5.194;2022-07-06T13:16:24;4.30;;;1.88;;
53646;SDS011;39550;52.230;5.194;2022-07-06T13:18:55;4.68;;;1.92;;
53646;SDS011;39550;52.230;5.194;2022-07-06T13:21:20;3.20;;;1.80;;
53646;SDS011;39550;52.230;5.194;2022-07-06T13:23:46;3.20;;;1.65;;
53646;SDS011;39550;52.230;5.194;2022-07-06T13:26:11;3.33;;;1.77;;
53646;SDS011;39550;52.230;5.194;2022-07-06T13:28:36;3.80;;;2.05;;
53646;SDS011;39550;52.230;5.194;2022-07-06T13:31:01;3.78;;;1.60;;
53646;SDS011;39550;52.230;5.194;2022-07-06T13:33:27;4.60;;;2.00;;
53646;SDS011;39550;52.230;5.194;2022-07-06T13:35:52;4.20;;;2.05;;
53646;SDS011;39550;52.230;5.194;2022-07-06T13:38:17;4.35;;;1.90;;
53646;SDS011;39550;52.230;5.194;2022-07-06T13:40:43;14.02;;;2.70;;
53646;SDS011;39550;52.230;5.194;2022-07-06T13:43:08;4.80;;;1.73;;
53646;SDS011;39550;52.230;5.194;2022-07-06T13:45:33;4.05;;;1.80;;
53646;SDS011;39550;52.230;5.194;2022-07-06T13:47:59;4.07;;;1.90;;
53646;SDS011;39550;52.230;5.194;2022-07-06T13:50:24;3.97;;;1.80;;
53646;SDS011;39550;52.230;5.194;2022-07-06T13:52:50;4.88;;;2.03;;
53646;SDS011;39550;52.230;5.194;2022-07-06T13:55:15;3.72;;;1.85;;
53646;SDS011;39550;52.230;5.194;2022-07-06T13:57:41;4.25;;;1.98;;
53646;SDS011;39550;52.230;5.194;2022-07-06T14:00:07;4.25;;;1.92;;
53646;SDS011;39550;52.230;5.194;2022-07-06T14:02:33;6.32;;;1.75;;
53646;SDS011;39550;52.230;5.194;2022-07-06T14:04:58;6.55;;;2.00;;
53646;SDS011;39550;52.230;5.194;2022-07-06T14:07:23;5.38;;;2.05;;
53646;SDS011;39550;52.230;5.194;2022-07-06T14:09:49;6.55;;;2.10;;
53646;SDS011;39550;52.230;5.194;2022-07-06T14:12:16;4.28;;;1.88;;
53646;SDS011;39550;52.230;5.194;2022-07-06T14:14:42;3.17;;;1.80;;
53646;SDS011;39550;52.230;5.194;2022-07-06T14:17:07;3.28;;;1.88;;
53646;SDS011;39550;52.230;5.194;2022-07-06T14:19:32;4.93;;;2.05;;
53646;SDS011;39550;52.230;5.194;2022-07-06T14:21:58;4.25;;;1.60;;
53646;SDS011;39550;52.230;5.194;2022-07-06T14:24:23;5.25;;;2.20;;
53646;SDS011;39550;52.230;5.194;2022-07-06T14:26:48;5.55;;;2.30;;
53646;SDS011;39550;52.230;5.194;2022-07-06T14:29:13;4.28;;;1.80;;
53646;SDS011;39550;52.230;5.194;2022-07-06T14:31:39;4.53;;;2.00;;
53646;SDS011;39550;52.230;5.194;2022-07-06T14:34:04;5.32;;;2.10;;
53646;SDS011;39550;52.230;5.194;2022-07-06T14:36:29;5.28;;;2.15;;
53646;SDS011;39550;52.230;5.194;2022-07-06T14:38:55;4.22;;;2.10;;
53646;SDS011;39550;52.230;5.194;2022-07-06T14:41:20;4.53;;;2.13;;
53646;SDS011;39550;52.230;5.194;2022-07-06T14:43:46;4.43;;;2.35;;
53646;SDS011;39550;52.230;5.194;2022-07-06T14:46:11;4.93;;;2.35;;
53646;SDS011;39550;52.230;5.194;2022-07-06T14:48:37;7.32;;;2.80;;
53646;SDS011;39550;52.230;5.194;2022-07-06T14:51:02;5.60;;;2.53;;
53646;SDS011;39550;52.230;5.194;2022-07-06T14:53:27;4.95;;;2.42;;
53646;SDS011;39550;52.230;5.194;2022-07-06T14:55:53;5.22;;;2.63;;
53646;SDS011;39550;52.230;5.194;2022-07-06T14:58:18;5.28;;;2.60;;
53646;SDS011;39550;52.230;5.194;2022-07-06T15:00:46;9.35;;;2.65;;
53646;SDS011;39550;52.230;5.194;2022-07-06T15:03:12;7.27;;;2.77;;
53646;SDS011;39550;52.230;5.194;2022-07-06T15:05:37;5.82;;;2.83;;
53646;SDS011;39550;52.230;5.194;2022-07-06T15:08:03;6.32;;;2.55;;
53646;SDS011;39550;52.230;5.194;2022-07-06T15:10:30;7.35;;;2.88;;
53646;SDS011;39550;52.230;5.194;2022-07-06T15:12:55;4.57;;;2.80;;